Rancul, Argentina
Current Conditions -  °F | °C
As of 10:00 PM on Tuesday 25 Nov 2014 (Local Time) from SAOC Reporting Station
Scattered Clouds Scattered Clouds  
Wind Chill: 66°   Ceiling: Unl
Heat Index: 66°   Visibility: 6mi
Dew Point: 50°   Wind: 13mph
Humidity: 56%   Direction: 20°NNE
Pressure: 29.91"   Gusts: NA
Location:  35.05°S, 64.7°W
Report Text: SAOC 260100Z 02011KT 9999 SCT030 SCT05019/10 Q1013
Loading
Personal Weather Stations






























Interactive Weather Map New forecast layout! Learn more

10-Day Weather Forecast

Advertisements
Track Severe Weather on mobile